Terminal Aerodrome Forecast
Issued by NWS Sterling, VA

Home | Current Version | Previous Version | Text Only | Print | Product List | Glossary On
Versions: 1 2 3 4 5 6 7 8 9 10 11 12 13 14 15 16 17 18 19 20 21 22 23 24 25 26
000
FTUS41 KLWX 292340
TAFIAD
TAF
KIAD 292340Z 3000/3106 15009KT P6SM VCTS BKN040CB
     FM300200 16007KT P6SM BKN250
     FM300800 16006KT 3SM MIFG SCT250
     FM301200 19008KT P6SM SCT090
     FM301500 19009KT P6SM BKN090
     FM302300 19010KT P6SM SCT060
     FM310400 18006KT P6SM SCT250=

USA.gov is the U.S. government's official web portal to all federal, state and local government web resources and services.